createdAt,value
2019-02-02T00:00:46.535Z,100.00
2019-02-02T00:03:49.914Z,100.00
2019-02-02T00:06:42.338Z,100.00
2019-02-02T00:09:38.137Z,100.00
2019-02-02T00:12:36.700Z,100.00
2019-02-02T00:15:22.801Z,100.00
2019-02-02T00:18:15.606Z,100.00
2019-02-02T00:21:05.276Z,100.00
2019-02-02T00:23:59.402Z,100.00
2019-02-02T00:26:51.782Z,100.00
2019-02-02T00:29:40.431Z,100.00
2019-02-02T00:32:41.207Z,100.00
2019-02-02T00:35:31.530Z,100.00
2019-02-02T00:38:28.607Z,100.00
2019-02-02T00:41:17.055Z,100.00
2019-02-02T00:44:10.126Z,100.00
2019-02-02T00:46:59.486Z,100.00
2019-02-02T00:49:59.235Z,100.00
2019-02-02T00:52:54.937Z,100.00
2019-02-02T00:55:43.444Z,100.00
2019-02-02T00:58:35.784Z,100.00
2019-02-02T01:01:35.524Z,100.00
2019-02-02T01:04:25.387Z,100.00
2019-02-02T01:07:16.436Z,100.00
2019-02-02T01:10:11.253Z,100.00
2019-02-02T01:13:00.806Z,100.00
2019-02-02T01:15:53.949Z,100.00
2019-02-02T01:18:50.567Z,100.00
2019-02-02T01:21:43.282Z,100.00
2019-02-02T01:24:34.685Z,100.00
2019-02-02T01:27:26.878Z,100.00
2019-02-02T01:30:21.790Z,100.00
2019-02-02T01:33:14.281Z,100.00
2019-02-02T01:36:06.674Z,100.00
2019-02-02T01:39:01.143Z,100.00
2019-02-02T01:41:59.567Z,100.00
2019-02-02T01:44:50.404Z,100.00
2019-02-02T01:47:45.383Z,100.00
2019-02-02T01:50:47.577Z,100.00
2019-02-02T01:53:34.204Z,100.00
2019-02-02T01:56:23.508Z,100.00
2019-02-02T01:59:15.867Z,100.00
2019-02-02T02:02:07.394Z,100.00
2019-02-02T02:05:02.613Z,100.00
2019-02-02T02:07:57.850Z,100.00
2019-02-02T02:10:50.010Z,100.00
2019-02-02T02:13:42.021Z,100.00
2019-02-02T02:16:32.863Z,100.00
2019-02-02T02:19:23.849Z,100.00
2019-02-02T02:22:20.912Z,100.00
2019-02-02T02:25:20.030Z,100.00
2019-02-02T02:28:27.766Z,100.00
2019-02-02T02:31:11.019Z,100.00
2019-02-02T02:34:12.171Z,100.00
2019-02-02T02:37:10.108Z,100.00
2019-02-02T02:40:10.044Z,100.00
2019-02-02T02:42:59.703Z,100.00
2019-02-02T02:45:51.276Z,100.00
2019-02-02T02:48:53.594Z,100.00
2019-02-02T02:51:43.701Z,100.00
2019-02-02T02:54:38.339Z,100.00
2019-02-02T02:57:33.925Z,100.00
2019-02-02T03:00:37.307Z,100.00
2019-02-02T03:03:26.672Z,100.00
2019-02-02T03:06:29.276Z,100.00
2019-02-02T03:09:20.199Z,100.00
2019-02-02T03:12:17.674Z,100.00
2019-02-02T03:15:08.998Z,100.00
2019-02-02T03:18:02.446Z,100.00
2019-02-02T03:20:56.321Z,100.00
2019-02-02T03:23:54.359Z,100.00
2019-02-02T03:26:48.410Z,100.00
2019-02-02T03:29:40.930Z,100.00
2019-02-02T03:32:47.349Z,100.00
2019-02-02T03:35:37.103Z,100.00
2019-02-02T03:38:27.630Z,100.00
2019-02-02T03:41:23.905Z,100.00
2019-02-02T03:44:17.043Z,100.00
2019-02-02T03:47:11.361Z,100.00
2019-02-02T03:50:06.512Z,100.00
2019-02-02T03:52:58.369Z,100.00
2019-02-02T03:55:52.263Z,100.00
2019-02-02T03:58:49.939Z,100.00
2019-02-02T04:01:45.737Z,100.00
2019-02-02T04:04:41.696Z,100.00
2019-02-02T04:07:30.998Z,100.00
2019-02-02T04:10:20.474Z,100.00
2019-02-02T04:13:11.846Z,100.00
2019-02-02T04:16:02.843Z,100.00
2019-02-02T04:19:00.898Z,100.00
2019-02-02T04:22:11.046Z,100.00
2019-02-02T04:25:01.521Z,100.00
2019-02-02T04:27:55.465Z,100.00
2019-02-02T04:30:51.002Z,100.00
2019-02-02T04:33:44.557Z,100.00
2019-02-02T04:36:43.255Z,100.00
2019-02-02T04:39:35.048Z,100.00
2019-02-02T04:42:30.363Z,100.00
2019-02-02T04:45:24.118Z,100.00
2019-02-02T04:48:15.047Z,100.00
2019-02-02T04:51:13.776Z,100.00
2019-02-02T04:54:01.674Z,100.00
2019-02-02T04:56:55.636Z,100.00
2019-02-02T04:59:46.432Z,100.00
2019-02-02T05:02:40.815Z,100.00
2019-02-02T05:05:34.720Z,100.00
2019-02-02T05:08:24.136Z,100.00
2019-02-02T05:11:17.146Z,100.00
2019-02-02T05:14:07.607Z,100.00
2019-02-02T05:17:05.811Z,100.00
2019-02-02T05:19:56.694Z,100.00
2019-02-02T05:22:52.367Z,100.00
2019-02-02T05:25:41.723Z,100.00
2019-02-02T05:28:45.616Z,100.00
2019-02-02T05:31:41.250Z,100.00
2019-02-02T05:34:38.205Z,100.00
2019-02-02T05:37:37.075Z,100.00
2019-02-02T05:40:27.379Z,100.00
2019-02-02T05:43:21.077Z,100.00
2019-02-02T05:46:17.317Z,100.00
2019-02-02T05:49:06.660Z,100.00
2019-02-02T05:51:59.436Z,100.00
2019-02-02T05:54:49.562Z,100.00
2019-02-02T05:57:43.927Z,100.00
2019-02-02T06:00:54.121Z,100.00
2019-02-02T06:03:54.903Z,100.00
2019-02-02T06:06:46.281Z,100.00
2019-02-02T06:09:36.553Z,100.00
2019-02-02T06:12:31.967Z,100.00
2019-02-02T06:15:29.107Z,100.00
2019-02-02T06:18:21.525Z,100.00
2019-02-02T06:21:14.629Z,100.00
2019-02-02T06:24:06.940Z,100.00
2019-02-02T06:27:03.258Z,100.00
2019-02-02T06:30:04.594Z,100.00
2019-02-02T06:32:52.262Z,100.00
2019-02-02T06:36:03.947Z,100.00
2019-02-02T06:38:53.519Z,100.00
2019-02-02T06:41:45.862Z,100.00
2019-02-02T06:44:39.653Z,100.00
2019-02-02T06:47:31.011Z,100.00
2019-02-02T06:50:27.517Z,100.00
2019-02-02T06:53:22.392Z,100.00
2019-02-02T06:56:14.027Z,100.00
2019-02-02T06:59:10.207Z,100.00
2019-02-02T07:02:04.541Z,100.00
2019-02-02T07:04:53.324Z,100.00
2019-02-02T07:07:58.090Z,100.00
2019-02-02T07:10:47.709Z,100.00
2019-02-02T07:13:46.745Z,100.00
2019-02-02T07:16:46.952Z,100.00
2019-02-02T07:19:43.155Z,100.00
2019-02-02T07:22:35.076Z,100.00
2019-02-02T07:25:28.436Z,100.00
2019-02-02T07:28:29.168Z,100.00
2019-02-02T07:31:22.011Z,100.00
2019-02-02T07:34:19.742Z,100.00
2019-02-02T07:40:23.217Z,100.00
2019-02-02T07:43:13.447Z,100.00
2019-02-02T07:46:14.756Z,100.00
2019-02-02T07:49:05.549Z,100.00
2019-02-02T07:51:55.905Z,100.00
2019-02-02T07:54:45.541Z,100.00
2019-02-02T07:57:45.141Z,100.00
2019-02-02T08:00:41.800Z,100.00
2019-02-02T08:03:37.337Z,100.00
2019-02-02T08:06:29.137Z,100.00
2019-02-02T08:09:19.949Z,100.00
2019-02-02T08:12:12.576Z,100.00
2019-02-02T08:15:04.533Z,100.00
2019-02-02T08:18:02.069Z,100.00
2019-02-02T08:20:53.223Z,100.00
2019-02-02T08:23:46.922Z,100.00
2019-02-02T08:26:41.625Z,100.00
2019-02-02T08:29:34.341Z,100.00
2019-02-02T08:32:27.135Z,100.00
2019-02-02T08:35:18.079Z,100.00
2019-02-02T08:38:09.984Z,100.00
2019-02-02T08:41:06.246Z,100.00
2019-02-02T08:44:06.358Z,100.00
2019-02-02T08:46:56.355Z,100.00
2019-02-02T08:49:49.164Z,100.00
2019-02-02T08:52:41.038Z,100.00
2019-02-02T08:55:32.556Z,100.00
2019-02-02T08:58:25.730Z,100.00
2019-02-02T09:01:17.014Z,100.00
2019-02-02T09:04:06.479Z,100.00
2019-02-02T09:06:56.231Z,100.00
2019-02-02T09:09:45.669Z,100.00
2019-02-02T09:12:39.569Z,100.00
2019-02-02T09:15:30.352Z,100.00
2019-02-02T09:18:19.713Z,100.00
2019-02-02T09:21:09.109Z,100.00
2019-02-02T09:23:58.638Z,100.00
2019-02-02T09:26:48.481Z,100.00
2019-02-02T09:29:38.196Z,100.00
2019-02-02T09:32:30.872Z,100.00
2019-02-02T09:35:20.187Z,100.00
2019-02-02T09:38:12.011Z,100.00
2019-02-02T09:41:01.090Z,99.19
2019-02-02T09:43:50.595Z,97.50
2019-02-02T09:46:40.046Z,96.88
2019-02-02T09:49:29.406Z,94.69
2019-02-02T09:52:19.588Z,95.68
2019-02-02T09:55:11.750Z,96.70
2019-02-02T09:58:04.301Z,94.32
2019-02-02T10:00:53.840Z,91.88
2019-02-02T10:03:43.354Z,90.64
2019-02-02T10:06:32.979Z,90.39
2019-02-02T10:09:22.643Z,88.97
2019-02-02T10:12:11.748Z,88.45
2019-02-02T10:15:01.431Z,89.47
2019-02-02T10:17:50.828Z,90.11
2019-02-02T10:20:39.906Z,89.74
2019-02-02T10:23:29.706Z,89.86
2019-02-02T10:26:19.525Z,88.80
2019-02-02T10:29:09.302Z,89.49
2019-02-02T10:31:59.040Z,89.34
2019-02-02T10:34:57.015Z,87.61
2019-02-02T10:37:46.904Z,87.13
2019-02-02T10:40:36.487Z,87.00
2019-02-02T10:43:25.963Z,86.20
2019-02-02T10:46:17.041Z,85.36
2019-02-02T10:49:08.328Z,85.10
2019-02-02T10:51:57.767Z,85.06
2019-02-02T10:54:46.974Z,86.28
2019-02-02T10:57:36.679Z,87.49
2019-02-02T11:00:28.300Z,88.79
2019-02-02T11:03:17.860Z,89.72
2019-02-02T11:06:08.557Z,89.48
2019-02-02T11:08:58.221Z,90.35
2019-02-02T11:11:47.576Z,88.42
2019-02-02T11:14:37.234Z,89.49
2019-02-02T11:17:26.795Z,89.73
2019-02-02T11:20:18.406Z,89.68
2019-02-02T11:23:08.458Z,90.78
2019-02-02T11:25:58.403Z,90.62
2019-02-02T11:28:48.206Z,87.02
2019-02-02T11:31:37.699Z,85.74
2019-02-02T11:34:27.180Z,83.84
2019-02-02T11:37:16.872Z,82.36
2019-02-02T11:40:10.040Z,83.35
2019-02-02T11:42:58.622Z,84.18
2019-02-02T11:45:48.094Z,84.77
2019-02-02T11:48:37.857Z,86.05
2019-02-02T11:51:27.498Z,87.75
2019-02-02T11:54:16.894Z,87.18
2019-02-02T11:57:06.638Z,85.41
2019-02-02T12:00:03.553Z,86.23
2019-02-02T12:02:55.190Z,86.79
2019-02-02T12:05:44.619Z,84.84
2019-02-02T12:08:34.110Z,84.19
2019-02-02T12:11:23.580Z,83.11
2019-02-02T12:14:14.275Z,81.38
2019-02-02T12:17:03.671Z,80.60
2019-02-02T12:19:53.328Z,80.98
2019-02-02T12:22:42.576Z,81.12
2019-02-02T12:25:32.132Z,82.26
2019-02-02T12:28:21.515Z,85.55
2019-02-02T12:31:10.998Z,85.83
2019-02-02T12:34:03.209Z,83.41
2019-02-02T12:36:52.965Z,82.99
2019-02-02T12:39:41.933Z,83.10
2019-02-02T12:42:31.284Z,83.24
2019-02-02T12:45:26.410Z,83.45
2019-02-02T12:48:16.365Z,83.18
2019-02-02T12:51:05.603Z,83.04
2019-02-02T12:53:55.856Z,81.93
2019-02-02T12:56:27.570Z,86.25
2019-02-02T12:58:58.577Z,89.52
2019-02-02T13:01:30.062Z,89.99
2019-02-02T13:04:05.196Z,87.92
2019-02-02T13:06:34.923Z,86.13
2019-02-02T13:09:09.369Z,84.19
2019-02-02T13:11:40.378Z,85.05
2019-02-02T13:14:11.732Z,85.10
2019-02-02T13:16:42.765Z,84.95
2019-02-02T13:19:14.123Z,83.73
2019-02-02T13:21:45.374Z,81.90
2019-02-02T13:24:16.358Z,84.74
2019-02-02T13:26:47.356Z,89.27
2019-02-02T13:29:18.477Z,89.25
2019-02-02T13:31:49.486Z,88.34
2019-02-02T13:34:20.497Z,85.54
2019-02-02T13:36:51.558Z,81.88
2019-02-02T13:39:22.554Z,81.18
2019-02-02T13:41:53.612Z,81.60
2019-02-02T13:44:24.660Z,80.90
2019-02-02T13:46:55.657Z,81.76
2019-02-02T13:49:26.741Z,82.91
2019-02-02T13:51:57.875Z,84.17
2019-02-02T13:54:28.985Z,83.18
2019-02-02T13:57:00.150Z,79.93
2019-02-02T13:59:31.177Z,75.60
2019-02-02T14:02:02.184Z,74.43
2019-02-02T14:04:34.268Z,74.03
2019-02-02T14:07:17.444Z,74.65
2019-02-02T14:09:38.461Z,74.34
2019-02-02T14:12:09.493Z,76.72
2019-02-02T14:14:40.538Z,75.77
2019-02-02T14:17:11.541Z,77.28
2019-02-02T14:19:42.532Z,78.36
2019-02-02T14:22:14.118Z,78.95
2019-02-02T14:24:45.191Z,79.31
2019-02-02T14:27:16.224Z,79.24
2019-02-02T14:29:47.343Z,81.22
2019-02-02T14:32:20.736Z,80.22
2019-02-02T14:35:03.683Z,80.67
2019-02-02T14:37:35.137Z,80.93
2019-02-02T14:40:08.019Z,81.17
2019-02-02T14:42:40.972Z,82.30
2019-02-02T14:45:17.349Z,83.00
2019-02-02T14:47:48.484Z,85.96
2019-02-02T14:50:21.229Z,84.99
2019-02-02T14:52:53.019Z,85.58
2019-02-02T14:55:28.924Z,85.75
2019-02-02T14:58:04.488Z,87.30
2019-02-02T15:00:36.609Z,90.02
2019-02-02T15:03:07.778Z,89.36
2019-02-02T15:05:43.094Z,88.48
2019-02-02T15:08:14.196Z,88.74
2019-02-02T15:10:45.317Z,91.26
2019-02-02T15:13:16.589Z,91.67
2019-02-02T15:15:47.949Z,91.62
2019-02-02T15:18:19.231Z,91.53
2019-02-02T15:20:50.628Z,92.89
2019-02-02T15:23:22.070Z,92.54
2019-02-02T15:25:53.612Z,94.79
2019-02-02T15:28:24.666Z,96.31
2019-02-02T15:30:55.953Z,97.11
2019-02-02T15:33:37.530Z,98.81
2019-02-02T15:36:01.153Z,98.63
2019-02-02T15:38:32.439Z,97.51
2019-02-02T15:41:03.574Z,96.83
2019-02-02T15:43:34.881Z,98.25
2019-02-02T15:46:06.193Z,98.30
2019-02-02T15:48:37.552Z,100.00
2019-02-02T15:51:09.080Z,100.00
2019-02-02T15:53:40.391Z,100.00
2019-02-02T15:56:11.594Z,100.00
2019-02-02T15:58:43.050Z,100.00
2019-02-02T16:01:14.667Z,100.00
2019-02-02T16:03:49.626Z,100.00
2019-02-02T16:06:18.924Z,100.00
2019-02-02T16:08:50.150Z,100.00
2019-02-02T16:11:21.663Z,100.00
2019-02-02T16:13:53.013Z,100.00
2019-02-02T16:16:24.411Z,100.00
2019-02-02T16:18:55.556Z,100.00
2019-02-02T16:21:26.899Z,100.00
2019-02-02T16:23:58.016Z,100.00
2019-02-02T16:26:29.254Z,100.00
2019-02-02T16:29:00.630Z,100.00
2019-02-02T16:31:31.838Z,100.00
2019-02-02T16:34:03.087Z,100.00
2019-02-02T16:36:35.566Z,100.00
2019-02-02T16:39:09.475Z,100.00
2019-02-02T16:41:40.990Z,100.00
2019-02-02T16:44:12.737Z,100.00
2019-02-02T16:46:44.253Z,100.00
2019-02-02T16:49:17.182Z,100.00
2019-02-02T16:51:48.870Z,100.00
2019-02-02T16:54:20.511Z,100.00
2019-02-02T16:56:51.898Z,100.00
2019-02-02T16:59:23.174Z,100.00
2019-02-02T17:01:54.697Z,100.00
2019-02-02T17:04:26.306Z,100.00
2019-02-02T17:06:59.317Z,100.00
2019-02-02T17:09:30.904Z,100.00
2019-02-02T17:12:02.416Z,100.00
2019-02-02T17:14:34.078Z,100.00
2019-02-02T17:17:05.974Z,100.00
2019-02-02T17:19:37.542Z,100.00
2019-02-02T17:22:08.748Z,100.00
2019-02-02T17:24:40.552Z,100.00
2019-02-02T17:27:11.923Z,100.00
2019-02-02T17:29:43.289Z,100.00
2019-02-02T17:32:14.503Z,100.00
2019-02-02T17:34:45.646Z,100.00
2019-02-02T17:37:17.856Z,100.00
2019-02-02T17:39:49.029Z,100.00
2019-02-02T17:42:20.240Z,100.00
2019-02-02T17:44:51.549Z,100.00
2019-02-02T17:47:22.825Z,100.00
2019-02-02T17:49:54.069Z,100.00
2019-02-02T17:52:25.354Z,100.00
2019-02-02T17:54:56.442Z,100.00
2019-02-02T17:57:27.562Z,100.00
2019-02-02T17:59:58.811Z,100.00
2019-02-02T18:02:29.928Z,100.00
2019-02-02T18:05:01.075Z,100.00
2019-02-02T18:07:32.256Z,100.00
2019-02-02T18:10:03.396Z,100.00
2019-02-02T18:12:34.576Z,100.00
2019-02-02T18:15:06.818Z,100.00
2019-02-02T18:17:38.047Z,100.00
2019-02-02T18:20:12.001Z,100.00
2019-02-02T18:22:43.483Z,100.00
2019-02-02T18:25:15.128Z,100.00
2019-02-02T18:27:46.398Z,100.00
2019-02-02T18:30:21.524Z,100.00
2019-02-02T18:32:52.753Z,100.00
2019-02-02T18:35:24.077Z,100.00
2019-02-02T18:37:55.290Z,100.00
2019-02-02T18:40:26.611Z,100.00
2019-02-02T18:42:57.833Z,100.00
2019-02-02T18:45:29.279Z,100.00
2019-02-02T18:48:00.521Z,100.00
2019-02-02T18:50:31.723Z,100.00
2019-02-02T18:53:03.033Z,100.00
2019-02-02T18:55:46.967Z,100.00
2019-02-02T18:58:19.839Z,100.00
2019-02-02T19:00:51.395Z,100.00
2019-02-02T19:03:22.858Z,100.00
2019-02-02T19:05:54.153Z,100.00
2019-02-02T19:08:25.370Z,100.00
2019-02-02T19:10:56.589Z,100.00
2019-02-02T19:13:27.898Z,100.00
2019-02-02T19:15:59.012Z,100.00
2019-02-02T19:18:30.156Z,100.00
2019-02-02T19:21:01.512Z,100.00
2019-02-02T19:23:32.675Z,100.00
2019-02-02T19:26:05.403Z,100.00
2019-02-02T19:28:39.934Z,100.00
2019-02-02T19:31:09.848Z,100.00
2019-02-02T19:33:41.209Z,100.00
2019-02-02T19:36:12.468Z,100.00
2019-02-02T19:38:43.790Z,100.00
2019-02-02T19:41:14.978Z,100.00
2019-02-02T19:43:46.382Z,100.00
2019-02-02T19:46:17.796Z,100.00
2019-02-02T19:48:49.085Z,100.00
2019-02-02T19:51:20.434Z,100.00
2019-02-02T19:53:51.622Z,100.00
2019-02-02T19:56:22.808Z,100.00
2019-02-02T19:58:54.232Z,100.00
2019-02-02T20:01:25.812Z,100.00
2019-02-02T20:03:57.319Z,100.00
2019-02-02T20:06:28.747Z,100.00
2019-02-02T20:08:59.996Z,100.00
2019-02-02T20:11:31.171Z,100.00
2019-02-02T20:14:02.355Z,100.00
2019-02-02T20:16:33.566Z,100.00
2019-02-02T20:19:05.203Z,100.00
2019-02-02T20:21:39.321Z,100.00
2019-02-02T20:24:10.468Z,100.00
2019-02-02T20:26:42.789Z,100.00
2019-02-02T20:29:13.994Z,100.00
2019-02-02T20:31:47.962Z,100.00
2019-02-02T20:34:19.193Z,100.00
2019-02-02T20:36:50.543Z,100.00
2019-02-02T20:39:21.750Z,100.00
2019-02-02T20:41:52.929Z,100.00
2019-02-02T20:44:24.301Z,100.00
2019-02-02T20:46:55.522Z,100.00
2019-02-02T20:49:26.868Z,100.00
2019-02-02T20:51:59.634Z,100.00
2019-02-02T20:54:30.930Z,100.00
2019-02-02T20:57:02.067Z,100.00
2019-02-02T20:59:52.718Z,100.00
2019-02-02T21:02:42.878Z,100.00
2019-02-02T21:05:32.366Z,100.00
2019-02-02T21:08:22.228Z,100.00
2019-02-02T21:11:12.403Z,100.00
2019-02-02T21:14:01.205Z,100.00
2019-02-02T21:16:50.867Z,100.00
2019-02-02T21:19:40.303Z,100.00
2019-02-02T21:22:29.919Z,100.00
2019-02-02T21:25:19.146Z,100.00
2019-02-02T21:28:09.226Z,100.00
2019-02-02T21:30:58.834Z,100.00
2019-02-02T21:33:48.945Z,100.00
2019-02-02T21:36:38.337Z,100.00
2019-02-02T21:39:27.784Z,100.00
2019-02-02T21:42:17.026Z,100.00
2019-02-02T21:45:08.251Z,100.00
2019-02-02T21:47:57.074Z,100.00
2019-02-02T21:50:46.162Z,100.00
2019-02-02T21:53:35.876Z,100.00
2019-02-02T21:56:25.653Z,100.00
2019-02-02T21:59:15.069Z,100.00
2019-02-02T22:02:04.780Z,100.00
2019-02-02T22:04:54.616Z,100.00
2019-02-02T22:07:43.507Z,100.00
2019-02-02T22:10:32.816Z,100.00
2019-02-02T22:13:22.665Z,100.00
2019-02-02T22:16:11.889Z,100.00
2019-02-02T22:19:01.768Z,100.00
2019-02-02T22:21:51.019Z,100.00
2019-02-02T22:24:41.539Z,100.00
2019-02-02T22:27:31.034Z,100.00
2019-02-02T22:30:24.001Z,100.00
2019-02-02T22:33:15.390Z,100.00
2019-02-02T22:36:05.968Z,100.00
2019-02-02T22:38:55.604Z,100.00
2019-02-02T22:41:45.819Z,100.00
2019-02-02T22:44:35.593Z,100.00
2019-02-02T22:47:25.917Z,100.00
2019-02-02T22:50:18.326Z,100.00
2019-02-02T22:53:14.304Z,100.00
2019-02-02T22:56:03.413Z,100.00
2019-02-02T22:58:54.470Z,100.00
2019-02-02T23:01:47.141Z,100.00
2019-02-02T23:04:58.866Z,100.00
2019-02-02T23:08:03.447Z,100.00
2019-02-02T23:11:10.488Z,100.00
2019-02-02T23:14:40.824Z,100.00
2019-02-02T23:17:31.049Z,100.00
2019-02-02T23:20:20.669Z,100.00
2019-02-02T23:23:10.875Z,100.00
2019-02-02T23:26:00.758Z,100.00
2019-02-02T23:28:50.311Z,100.00
2019-02-02T23:31:39.741Z,100.00
2019-02-02T23:34:29.133Z,100.00
2019-02-02T23:37:18.246Z,100.00
2019-02-02T23:40:08.132Z,100.00
2019-02-02T23:42:57.277Z,100.00
2019-02-02T23:45:46.009Z,100.00
2019-02-02T23:48:35.459Z,100.00
2019-02-02T23:51:25.023Z,100.00
2019-02-02T23:54:17.799Z,100.00
2019-02-02T23:57:06.966Z,100.00
2019-02-02T23:59:56.277Z,100.00
